NCAR-RAP Real-Time Weather Data

Output produced by METARs form (20 February 2019  18:18 UTC)
found at http://weather.rap.ucar.edu/surface/
 
RJSC 201000Z 08003KT 040V130 8000 -SHRA FEW010 SCT030 BKN040 05/04 Q1013
RJSC 200900Z VRB01KT 6000 -SHRA BR FEW003 SCT015 BKN030 05/05 Q1013
RJSC 200800Z 35003KT 270V050 7000 R01/2000N -SHRA FEW003 SCT015 BKN035 05/05 Q1012
RJSC 200700Z VRB01KT 6000 -SHRA FEW003 SCT025 BKN045 04/04 Q1012
RJSC 200600Z 35004KT 6000 -SHRA FEW003 SCT010 BKN040 06/06 Q1011
RJSC 200500Z 09003KT 050V140 6000 -SHRA BCFG FEW003 SCT010 BKN040 06/05 Q1011
RJSC 200400Z 35005KT 5000 -SHRA BCFG BR FEW003 SCT008 BKN040 05/04 Q1011
RJSC 200337Z VRB02KT 5000 -SHRA BCFG BR FEW003 SCT008 BKN040 06/05 Q1011 RMK 1ST003 3ST008 6CU040 A2988
RJSC 200300Z 16003KT 110V190 4000 -SHRA BCFG BR FEW003 SCT006 BKN040 04/04 Q1012
RJSC 200200Z VRB03KT 4000 -SHRA BCFG BR FEW003 SCT006 BKN040 04/04 Q1013
RJSC 200100Z 21004KT 170V280 4000 BCFG BR FEW002 SCT006 BKN030 04/03 Q1013
RJSC 200038Z VRB02KT 4000 -SHRA BCFG BR FEW002 SCT006 BKN030 03/03 Q1012 RMK 1ST002 3ST006 6CU030 A2991
RJSC 200000Z 22004KT 090V250 2500 -SHRA BCFG BR FEW002 SCT004 BKN008 03/03 Q1012
RJSC 192300Z 11003KT 040V170 1800 BCFG BR FEW001 SCT003 BKN006 02/02 Q1012
RJSC 192240Z VRB02KT 1600 R01/2000N -RA BCFG BR FEW002 SCT003 BKN006 02/02 Q1012 RMK 1ST002 3ST003 7ST006 A2988
RJSC 191000Z 16002KT 8000 -RA FEW010 SCT030 BKN090 02/01 Q1014
RJSC 190900Z 01004KT 7000 -RA FEW010 SCT030 BKN050 03/01 Q1016
RJSC 190800Z VRB02KT 9999 -RA FEW035 OVC050 04/02 Q1017
RJSC 190700Z 03003KT 9999 -RA FEW035 SCT050 BKN060 04/00 Q1018
RJSC 190600Z 33003KT 290V350 9999 FEW070 BKN090 04/00 Q1018
RJSC 190500Z VRB02KT 9999 FEW070 BKN090 05/M00 Q1019
RJSC 190400Z VRB01KT CAVOK 05/M02 Q1020
RJSC 190300Z 16003KT CAVOK 04/M01 Q1022
RJSC 190200Z 18003KT CAVOK 03/M00 Q1023
RJSC 190100Z VRB02KT CAVOK 02/M01 Q1024
RJSC 190000Z VRB02KT CAVOK 01/M01 Q1025
RJSC 182300Z 12002KT CAVOK M01/M02 Q1026
RJSC 181000Z VRB02KT 9999 FEW050 03/M03 Q1025
RJSC 180900Z 01004KT 9999 FEW050 05/M03 Q1025
RJSC 180800Z 28007KT 9999 FEW040 SCT050 06/M04 Q1024
RJSC 180700Z 27010KT 9999 SCT050 07/M04 Q1024